MLP277 EIDW-LIMC
Flight info
| Callsign | MLP277 |
|---|---|
| Flight time | 2h 9m |
| Altitude | 35000 |
| Route | DEXEN4E DEXEN Y124 LUTIP UY124 DOLOP DCT KEPAD L15 FINMA DCT CHT DCT ITVIP DCT KONAN DCT KOK DCT CIV DCT IDOSA DCT SUTAL DCT GTQ DCT OBORN DCT DEVDI DCT BASGO Z424 RIXUV |
| Aircraft | B738/M-SDE2E3FGHIRWXY/LB1 |
Departure
| Time | 2026-04-30 11:59 |
|---|---|
| Airport | Dublin Airport (EIDW) |
Arrival
| Time | 2026-04-30 14:09 |
|---|---|
| Airport | Milan Malpensa International Airport (LIMC) |
| Time | Latitude | Longitude | Altitude | Speed | Heading |
|---|---|---|---|---|---|
| 2026-04-30 11:35 | 53.43009 | -6.24943 | 210 ft | 0 kts | 5° |
| 2026-04-30 11:48 | 53.43008 | -6.24943 | 210 ft | 1 kts | 5° |
| 2026-04-30 11:48 | 53.42992 | -6.24945 | 217 ft | 3 kts | 358° |
| 2026-04-30 11:48 | 53.42972 | -6.24941 | 210 ft | 3 kts | 342° |
| 2026-04-30 11:48 | 53.42955 | -6.24928 | 215 ft | 3 kts | 313° |
| 2026-04-30 11:49 | 53.42947 | -6.24907 | 211 ft | 1 kts | 277° |
| 2026-04-30 11:49 | 53.42947 | -6.24903 | 210 ft | 1 kts | 276° |
| 2026-04-30 11:52 | 53.42947 | -6.24904 | 210 ft | 0 kts | 276° |
| 2026-04-30 11:53 | 53.42948 | -6.24918 | 213 ft | 2 kts | 276° |
| 2026-04-30 11:53 | 53.42950 | -6.24961 | 214 ft | 5 kts | 276° |
| 2026-04-30 11:53 | 53.42955 | -6.25039 | 216 ft | 8 kts | 276° |
| 2026-04-30 11:53 | 53.42960 | -6.25157 | 210 ft | 11 kts | 272° |
| 2026-04-30 11:54 | 53.42943 | -6.25285 | 212 ft | 11 kts | 236° |
| 2026-04-30 11:54 | 53.42899 | -6.25393 | 212 ft | 11 kts | 231° |
| 2026-04-30 11:54 | 53.42846 | -6.25484 | 210 ft | 11 kts | 225° |
| 2026-04-30 11:54 | 53.42791 | -6.25579 | 219 ft | 13 kts | 226° |
| 2026-04-30 11:55 | 53.42710 | -6.25716 | 210 ft | 19 kts | 219° |
| 2026-04-30 11:55 | 53.42585 | -6.25691 | 213 ft | 19 kts | 163° |
| 2026-04-30 11:55 | 53.42476 | -6.25795 | 213 ft | 20 kts | 224° |
| 2026-04-30 11:55 | 53.42380 | -6.25958 | 219 ft | 19 kts | 226° |
| 2026-04-30 11:56 | 53.42289 | -6.26127 | 210 ft | 20 kts | 237° |
| 2026-04-30 11:56 | 53.42270 | -6.26363 | 210 ft | 21 kts | 274° |
| 2026-04-30 11:56 | 53.42284 | -6.26620 | 215 ft | 23 kts | 275° |
| 2026-04-30 11:56 | 53.42299 | -6.26895 | 210 ft | 24 kts | 275° |
| 2026-04-30 11:57 | 53.42316 | -6.27187 | 213 ft | 26 kts | 275° |
| 2026-04-30 11:57 | 53.42332 | -6.27496 | 210 ft | 27 kts | 275° |
| 2026-04-30 11:57 | 53.42349 | -6.27820 | 218 ft | 28 kts | 275° |
| 2026-04-30 11:57 | 53.42367 | -6.28137 | 214 ft | 26 kts | 275° |
| 2026-04-30 11:58 | 53.42351 | -6.28310 | 215 ft | 11 kts | 204° |
| 2026-04-30 11:58 | 53.42283 | -6.28300 | 218 ft | 10 kts | 146° |
| 2026-04-30 11:58 | 53.42236 | -6.28209 | 214 ft | 12 kts | 122° |
| 2026-04-30 11:58 | 53.42191 | -6.28026 | 216 ft | 30 kts | 100° |
| 2026-04-30 11:59 | 53.42146 | -6.27249 | 209 ft | 104 kts | 95° |
| 2026-04-30 11:59 | 53.42059 | -6.25699 | 297 ft | 155 kts | 95° |
| 2026-04-30 11:59 | 53.41966 | -6.23954 | 1295 ft | 143 kts | 97° |
| 2026-04-30 11:59 | 53.41878 | -6.22270 | 2116 ft | 150 kts | 101° |
| 2026-04-30 12:00 | 53.41756 | -6.20352 | 2523 ft | 179 kts | 105° |
| 2026-04-30 12:00 | 53.41410 | -6.18233 | 2854 ft | 203 kts | 113° |
| 2026-04-30 12:00 | 53.40947 | -6.15915 | 3383 ft | 215 kts | 114° |
| 2026-04-30 12:00 | 53.40462 | -6.13490 | 3909 ft | 229 kts | 113° |
| 2026-04-30 12:01 | 53.39936 | -6.10864 | 4525 ft | 245 kts | 112° |
| 2026-04-30 12:01 | 53.39395 | -6.08130 | 5388 ft | 249 kts | 111° |
| 2026-04-30 12:01 | 53.38849 | -6.05346 | 6302 ft | 253 kts | 111° |
| 2026-04-30 12:01 | 53.38298 | -6.02524 | 7167 ft | 256 kts | 111° |
| 2026-04-30 12:02 | 53.37750 | -5.99708 | 8042 ft | 259 kts | 111° |
| 2026-04-30 12:02 | 53.37189 | -5.96824 | 8909 ft | 261 kts | 111° |
| 2026-04-30 12:02 | 53.36624 | -5.93917 | 9818 ft | 264 kts | 112° |
| 2026-04-30 12:02 | 53.36060 | -5.90967 | 10577 ft | 271 kts | 109° |
| 2026-04-30 12:03 | 53.35662 | -5.87715 | 10801 ft | 299 kts | 103° |
| 2026-04-30 12:03 | 53.35085 | -5.80414 | 11815 ft | 324 kts | 101° |
| 2026-04-30 12:03 | 53.34803 | -5.76657 | 12638 ft | 326 kts | 102° |
| 2026-04-30 12:04 | 53.34510 | -5.72882 | 13478 ft | 328 kts | 102° |
| 2026-04-30 12:04 | 53.34203 | -5.69091 | 14255 ft | 330 kts | 103° |
| 2026-04-30 12:04 | 53.33884 | -5.65258 | 14911 ft | 335 kts | 103° |
| 2026-04-30 12:04 | 53.33665 | -5.62689 | 15355 ft | 338 kts | 103° |
| 2026-04-30 12:05 | 53.33214 | -5.57450 | 16255 ft | 343 kts | 103° |
| 2026-04-30 12:05 | 53.32985 | -5.54824 | 16699 ft | 345 kts | 103° |
| 2026-04-30 12:05 | 53.32520 | -5.49513 | 17571 ft | 351 kts | 104° |
| 2026-04-30 12:05 | 53.32162 | -5.45462 | 18231 ft | 355 kts | 104° |
| 2026-04-30 12:06 | 53.31917 | -5.42693 | 18638 ft | 357 kts | 104° |
| 2026-04-30 12:06 | 53.31550 | -5.38566 | 19222 ft | 360 kts | 104° |
| 2026-04-30 12:06 | 53.31179 | -5.34412 | 19822 ft | 362 kts | 104° |
| 2026-04-30 12:06 | 53.30804 | -5.30222 | 20395 ft | 365 kts | 104° |
| 2026-04-30 12:07 | 53.30429 | -5.26055 | 20966 ft | 368 kts | 104° |
| 2026-04-30 12:07 | 53.30044 | -5.21799 | 21513 ft | 371 kts | 104° |
| 2026-04-30 12:07 | 53.29655 | -5.17509 | 22073 ft | 374 kts | 104° |
| 2026-04-30 12:07 | 53.29261 | -5.13184 | 22625 ft | 377 kts | 104° |
| 2026-04-30 12:08 | 53.28862 | -5.08831 | 23162 ft | 380 kts | 104° |
| 2026-04-30 12:08 | 53.28459 | -5.04445 | 23672 ft | 383 kts | 104° |
| 2026-04-30 12:08 | 53.28051 | -5.00027 | 24108 ft | 386 kts | 104° |
| 2026-04-30 12:08 | 53.27639 | -4.95571 | 24512 ft | 390 kts | 104° |
| 2026-04-30 12:09 | 53.27226 | -4.91133 | 24915 ft | 393 kts | 104° |
| 2026-04-30 12:09 | 53.26805 | -4.86613 | 25315 ft | 396 kts | 104° |
| 2026-04-30 12:09 | 53.26378 | -4.82049 | 25709 ft | 399 kts | 104° |
| 2026-04-30 12:09 | 53.25944 | -4.77454 | 26102 ft | 402 kts | 104° |
| 2026-04-30 12:10 | 53.25543 | -4.72812 | 26493 ft | 406 kts | 100° |
| 2026-04-30 12:10 | 53.25344 | -4.68081 | 26878 ft | 410 kts | 98° |
| 2026-04-30 12:10 | 53.25191 | -4.63295 | 27261 ft | 413 kts | 98° |
| 2026-04-30 12:10 | 53.25046 | -4.58480 | 27636 ft | 416 kts | 98° |
| 2026-04-30 12:11 | 53.24897 | -4.53646 | 28024 ft | 418 kts | 98° |
| 2026-04-30 12:11 | 53.24741 | -4.48835 | 28387 ft | 420 kts | 98° |
| 2026-04-30 12:11 | 53.24575 | -4.43939 | 28736 ft | 423 kts | 98° |
| 2026-04-30 12:11 | 53.24403 | -4.39022 | 29103 ft | 425 kts | 98° |
| 2026-04-30 12:12 | 53.24226 | -4.34089 | 29515 ft | 426 kts | 98° |
| 2026-04-30 12:12 | 53.24048 | -4.29157 | 30015 ft | 424 kts | 98° |
| 2026-04-30 12:12 | 53.23868 | -4.24258 | 30496 ft | 421 kts | 98° |
| 2026-04-30 12:12 | 53.23687 | -4.19383 | 30917 ft | 420 kts | 98° |
| 2026-04-30 12:13 | 53.23505 | -4.14519 | 31309 ft | 420 kts | 98° |
| 2026-04-30 12:13 | 53.23320 | -4.09666 | 31694 ft | 419 kts | 98° |
| 2026-04-30 12:13 | 53.23135 | -4.04824 | 32094 ft | 417 kts | 99° |
| 2026-04-30 12:13 | 53.22947 | -3.99992 | 32452 ft | 417 kts | 99° |
| 2026-04-30 12:14 | 53.22755 | -3.95159 | 32824 ft | 416 kts | 99° |
| 2026-04-30 12:14 | 53.22557 | -3.90353 | 33229 ft | 414 kts | 99° |
| 2026-04-30 12:14 | 53.22359 | -3.85614 | 33588 ft | 414 kts | 99° |
| 2026-04-30 12:14 | 53.22158 | -3.80828 | 33965 ft | 413 kts | 99° |
| 2026-04-30 12:15 | 53.21957 | -3.76053 | 34326 ft | 412 kts | 99° |
| 2026-04-30 12:15 | 53.21754 | -3.71287 | 34571 ft | 413 kts | 99° |
| 2026-04-30 12:15 | 53.21437 | -3.66529 | 34771 ft | 411 kts | 106° |
| 2026-04-30 12:15 | 53.20702 | -3.61950 | 35025 ft | 406 kts | 113° |
| 2026-04-30 12:16 | 53.19606 | -3.57634 | 35179 ft | 404 kts | 122° |
| 2026-04-30 12:16 | 53.16802 | -3.49475 | 35192 ft | 406 kts | 123° |
| 2026-04-30 12:17 | 53.12573 | -3.37456 | 35196 ft | 398 kts | 123° |
| 2026-04-30 12:17 | 53.09792 | -3.29483 | 35197 ft | 399 kts | 123° |
| 2026-04-30 12:18 | 53.07012 | -3.21497 | 35215 ft | 399 kts | 123° |
| 2026-04-30 12:18 | 53.04225 | -3.13509 | 35209 ft | 399 kts | 123° |
| 2026-04-30 12:19 | 53.01431 | -3.05524 | 35215 ft | 400 kts | 123° |
| 2026-04-30 12:19 | 52.98644 | -2.97587 | 35216 ft | 400 kts | 123° |
| 2026-04-30 12:20 | 52.95831 | -2.89600 | 35213 ft | 400 kts | 123° |
| 2026-04-30 12:20 | 52.93017 | -2.81638 | 35209 ft | 400 kts | 123° |
| 2026-04-30 12:21 | 52.90197 | -2.73681 | 35209 ft | 400 kts | 123° |
| 2026-04-30 12:21 | 52.87374 | -2.65742 | 35208 ft | 400 kts | 123° |
| 2026-04-30 12:22 | 52.84457 | -2.57925 | 35209 ft | 398 kts | 126° |
| 2026-04-30 12:22 | 52.81372 | -2.50322 | 35211 ft | 398 kts | 126° |
| 2026-04-30 12:23 | 52.78278 | -2.42728 | 35215 ft | 398 kts | 126° |
| 2026-04-30 12:23 | 52.75200 | -2.35124 | 35219 ft | 398 kts | 126° |
| 2026-04-30 12:24 | 52.72127 | -2.27513 | 35222 ft | 399 kts | 126° |
| 2026-04-30 12:24 | 52.69048 | -2.19896 | 35226 ft | 399 kts | 126° |
| 2026-04-30 12:25 | 52.65977 | -2.12321 | 35226 ft | 399 kts | 126° |
| 2026-04-30 12:25 | 52.62882 | -2.04707 | 35231 ft | 400 kts | 126° |
| 2026-04-30 12:26 | 52.59779 | -1.97100 | 35235 ft | 401 kts | 126° |
| 2026-04-30 12:26 | 52.56665 | -1.89486 | 35242 ft | 401 kts | 126° |
| 2026-04-30 12:27 | 52.53563 | -1.81926 | 35237 ft | 401 kts | 126° |
| 2026-04-30 12:27 | 52.50435 | -1.74322 | 35235 ft | 402 kts | 126° |
| 2026-04-30 12:28 | 52.47300 | -1.66727 | 35238 ft | 402 kts | 126° |
| 2026-04-30 12:28 | 52.44158 | -1.59136 | 35242 ft | 402 kts | 126° |
| 2026-04-30 12:29 | 52.41009 | -1.51553 | 35235 ft | 403 kts | 126° |
| 2026-04-30 12:29 | 52.37852 | -1.43969 | 35268 ft | 402 kts | 126° |
| 2026-04-30 12:30 | 52.34697 | -1.36414 | 35277 ft | 402 kts | 126° |
| 2026-04-30 12:30 | 52.31541 | -1.28879 | 35290 ft | 401 kts | 126° |
| 2026-04-30 12:31 | 52.28384 | -1.21366 | 35283 ft | 401 kts | 126° |
| 2026-04-30 12:31 | 52.25224 | -1.13866 | 35277 ft | 400 kts | 126° |
| 2026-04-30 12:32 | 52.22065 | -1.06391 | 35267 ft | 400 kts | 126° |
| 2026-04-30 12:32 | 52.18904 | -0.98931 | 35256 ft | 400 kts | 126° |
| 2026-04-30 12:33 | 52.15738 | -0.91482 | 35228 ft | 399 kts | 126° |
| 2026-04-30 12:33 | 52.12590 | -0.84098 | 35235 ft | 399 kts | 126° |
| 2026-04-30 12:34 | 52.09458 | -0.76771 | 35241 ft | 399 kts | 126° |
| 2026-04-30 12:34 | 52.06280 | -0.69359 | 35240 ft | 400 kts | 126° |
| 2026-04-30 12:35 | 52.03096 | -0.61954 | 35237 ft | 400 kts | 126° |
| 2026-04-30 12:35 | 51.99903 | -0.54549 | 35242 ft | 400 kts | 126° |
| 2026-04-30 12:36 | 51.96705 | -0.47153 | 35239 ft | 401 kts | 126° |
| 2026-04-30 12:36 | 51.93499 | -0.39762 | 35239 ft | 401 kts | 126° |
| 2026-04-30 12:37 | 51.90284 | -0.32371 | 35239 ft | 401 kts | 126° |
| 2026-04-30 12:37 | 51.87057 | -0.24971 | 35238 ft | 402 kts | 126° |
| 2026-04-30 12:38 | 51.83849 | -0.17638 | 35236 ft | 402 kts | 126° |
| 2026-04-30 12:38 | 51.80613 | -0.10261 | 35306 ft | 402 kts | 126° |
| 2026-04-30 12:39 | 51.77368 | -0.02886 | 35299 ft | 402 kts | 126° |
| 2026-04-30 12:39 | 51.74120 | 0.04476 | 35255 ft | 403 kts | 126° |
| 2026-04-30 12:40 | 51.70863 | 0.11838 | 35259 ft | 403 kts | 126° |
| 2026-04-30 12:40 | 51.67607 | 0.19174 | 35244 ft | 403 kts | 126° |
| 2026-04-30 12:41 | 51.64339 | 0.26520 | 35240 ft | 403 kts | 126° |
| 2026-04-30 12:41 | 51.61073 | 0.33838 | 35243 ft | 402 kts | 126° |
| 2026-04-30 12:42 | 51.57805 | 0.41140 | 35260 ft | 402 kts | 126° |
| 2026-04-30 12:42 | 51.54532 | 0.48434 | 35265 ft | 402 kts | 127° |
| 2026-04-30 12:43 | 51.51256 | 0.55713 | 35266 ft | 402 kts | 127° |
| 2026-04-30 12:43 | 51.47994 | 0.62942 | 35264 ft | 402 kts | 127° |
| 2026-04-30 12:44 | 51.44711 | 0.70197 | 35262 ft | 402 kts | 127° |
| 2026-04-30 12:44 | 51.41421 | 0.77448 | 35262 ft | 402 kts | 127° |
| 2026-04-30 12:45 | 51.38125 | 0.84690 | 35256 ft | 403 kts | 127° |
| 2026-04-30 12:45 | 51.34824 | 0.91929 | 35260 ft | 403 kts | 127° |
| 2026-04-30 12:46 | 51.31510 | 0.99172 | 35249 ft | 403 kts | 127° |
| 2026-04-30 12:46 | 51.28604 | 1.06829 | 35253 ft | 404 kts | 114° |
| 2026-04-30 12:47 | 51.26981 | 1.15444 | 35253 ft | 406 kts | 106° |
| 2026-04-30 12:47 | 51.25611 | 1.24210 | 35250 ft | 407 kts | 106° |
| 2026-04-30 12:48 | 51.24456 | 1.31490 | 35251 ft | 407 kts | 106° |
| 2026-04-30 12:48 | 51.23037 | 1.40255 | 35248 ft | 408 kts | 106° |
| 2026-04-30 12:49 | 51.21604 | 1.49003 | 35248 ft | 408 kts | 106° |
| 2026-04-30 12:49 | 51.20161 | 1.57757 | 35246 ft | 408 kts | 106° |
| 2026-04-30 12:50 | 51.18712 | 1.66506 | 35242 ft | 408 kts | 106° |
| 2026-04-30 12:50 | 51.17258 | 1.75245 | 35241 ft | 408 kts | 106° |
| 2026-04-30 12:51 | 51.15808 | 1.83915 | 35242 ft | 407 kts | 106° |
| 2026-04-30 12:51 | 51.14343 | 1.92638 | 35239 ft | 407 kts | 106° |
| 2026-04-30 12:52 | 51.12984 | 2.01403 | 35232 ft | 409 kts | 99° |
| 2026-04-30 12:52 | 51.12386 | 2.10405 | 35232 ft | 408 kts | 103° |
| 2026-04-30 12:53 | 51.10415 | 2.18787 | 35249 ft | 404 kts | 117° |
| 2026-04-30 12:53 | 51.07874 | 2.26776 | 35237 ft | 405 kts | 117° |
| 2026-04-30 12:54 | 51.05329 | 2.34780 | 35239 ft | 405 kts | 117° |
| 2026-04-30 12:54 | 51.02799 | 2.42801 | 35234 ft | 406 kts | 117° |
| 2026-04-30 12:55 | 51.00288 | 2.50771 | 35243 ft | 406 kts | 117° |
| 2026-04-30 12:55 | 50.97752 | 2.58808 | 35240 ft | 407 kts | 117° |
| 2026-04-30 12:56 | 50.95211 | 2.66838 | 35245 ft | 407 kts | 117° |
| 2026-04-30 12:56 | 50.92659 | 2.74870 | 35249 ft | 407 kts | 117° |
| 2026-04-30 12:57 | 50.90106 | 2.82880 | 35244 ft | 407 kts | 117° |
| 2026-04-30 12:57 | 50.87550 | 2.90876 | 35249 ft | 407 kts | 117° |
| 2026-04-30 12:58 | 50.85004 | 2.98814 | 35242 ft | 407 kts | 117° |
| 2026-04-30 12:58 | 50.82440 | 3.06782 | 35243 ft | 406 kts | 117° |
| 2026-04-30 12:59 | 50.79870 | 3.14740 | 35242 ft | 406 kts | 117° |
| 2026-04-30 12:59 | 50.77301 | 3.22675 | 35243 ft | 405 kts | 117° |
| 2026-04-30 13:00 | 50.74729 | 3.30591 | 35247 ft | 405 kts | 117° |
| 2026-04-30 13:00 | 50.72154 | 3.38492 | 35247 ft | 404 kts | 117° |
| 2026-04-30 13:01 | 50.69575 | 3.46381 | 35251 ft | 404 kts | 117° |
| 2026-04-30 13:01 | 50.66992 | 3.54257 | 35256 ft | 404 kts | 117° |
| 2026-04-30 13:02 | 50.64415 | 3.62091 | 35257 ft | 405 kts | 117° |
| 2026-04-30 13:02 | 50.61818 | 3.69961 | 35257 ft | 405 kts | 117° |
| 2026-04-30 13:03 | 50.59215 | 3.77831 | 35263 ft | 405 kts | 117° |
| 2026-04-30 13:03 | 50.56544 | 3.85637 | 35260 ft | 405 kts | 120° |
| 2026-04-30 13:04 | 50.53587 | 3.93187 | 35260 ft | 405 kts | 121° |
| 2026-04-30 13:04 | 50.50575 | 4.00688 | 35260 ft | 406 kts | 121° |
| 2026-04-30 13:05 | 50.47575 | 4.08195 | 35267 ft | 406 kts | 121° |
| 2026-04-30 13:06 | 50.43097 | 4.19443 | 35265 ft | 407 kts | 121° |
| 2026-04-30 13:06 | 50.40093 | 4.26973 | 35268 ft | 407 kts | 121° |
| 2026-04-30 13:07 | 50.37088 | 4.34487 | 35269 ft | 407 kts | 121° |
| 2026-04-30 13:07 | 50.34076 | 4.41999 | 35268 ft | 407 kts | 121° |
| 2026-04-30 13:08 | 50.31052 | 4.49516 | 35270 ft | 408 kts | 121° |
| 2026-04-30 13:08 | 50.28021 | 4.57030 | 35266 ft | 408 kts | 121° |
| 2026-04-30 13:09 | 50.24988 | 4.64526 | 35268 ft | 408 kts | 121° |
| 2026-04-30 13:09 | 50.21950 | 4.72014 | 35267 ft | 408 kts | 121° |
| 2026-04-30 13:10 | 50.18914 | 4.79475 | 35264 ft | 408 kts | 121° |
| 2026-04-30 13:10 | 50.15866 | 4.86944 | 35263 ft | 407 kts | 121° |
| 2026-04-30 13:11 | 50.12840 | 4.94339 | 35265 ft | 407 kts | 121° |
| 2026-04-30 13:11 | 50.09792 | 5.01767 | 35265 ft | 407 kts | 121° |
| 2026-04-30 13:12 | 50.06737 | 5.09189 | 35264 ft | 407 kts | 121° |
| 2026-04-30 13:12 | 50.03682 | 5.16594 | 35262 ft | 406 kts | 121° |
| 2026-04-30 13:13 | 49.99091 | 5.27679 | 35262 ft | 406 kts | 121° |
| 2026-04-30 13:14 | 49.94490 | 5.38742 | 35262 ft | 407 kts | 121° |
| 2026-04-30 13:14 | 49.89872 | 5.49803 | 35263 ft | 407 kts | 121° |
| 2026-04-30 13:15 | 49.85231 | 5.60870 | 35274 ft | 408 kts | 121° |
| 2026-04-30 13:16 | 49.82143 | 5.68207 | 35269 ft | 409 kts | 121° |
| 2026-04-30 13:16 | 49.79030 | 5.75588 | 35276 ft | 409 kts | 121° |
| 2026-04-30 13:17 | 49.74340 | 5.86655 | 35283 ft | 410 kts | 122° |
| 2026-04-30 13:18 | 49.69025 | 5.96987 | 35293 ft | 411 kts | 127° |
| 2026-04-30 13:18 | 49.63589 | 6.07255 | 35291 ft | 411 kts | 127° |
| 2026-04-30 13:19 | 49.59980 | 6.14107 | 35294 ft | 411 kts | 127° |
| 2026-04-30 13:19 | 49.56377 | 6.20938 | 35296 ft | 410 kts | 127° |
| 2026-04-30 13:20 | 49.52770 | 6.27762 | 35293 ft | 410 kts | 127° |
| 2026-04-30 13:20 | 49.49181 | 6.34525 | 35288 ft | 410 kts | 128° |
| 2026-04-30 13:21 | 49.44852 | 6.40296 | 35282 ft | 416 kts | 145° |
| 2026-04-30 13:22 | 49.36929 | 6.45942 | 35271 ft | 419 kts | 153° |
| 2026-04-30 13:22 | 49.28894 | 6.51271 | 35265 ft | 420 kts | 153° |
| 2026-04-30 13:23 | 49.20870 | 6.56672 | 35265 ft | 420 kts | 153° |
| 2026-04-30 13:24 | 49.10180 | 6.63857 | 35264 ft | 422 kts | 153° |
| 2026-04-30 13:25 | 48.99410 | 6.71061 | 35263 ft | 422 kts | 152° |
| 2026-04-30 13:26 | 48.86895 | 6.82501 | 35255 ft | 420 kts | 144° |
| 2026-04-30 13:28 | 48.74420 | 6.94170 | 35251 ft | 422 kts | 145° |
| 2026-04-30 13:28 | 48.66901 | 7.01136 | 35254 ft | 422 kts | 145° |
| 2026-04-30 13:29 | 48.56890 | 7.10377 | 35246 ft | 423 kts | 145° |
| 2026-04-30 13:31 | 48.45032 | 7.20863 | 35242 ft | 428 kts | 155° |
| 2026-04-30 13:32 | 48.30777 | 7.27684 | 35235 ft | 431 kts | 159° |
| 2026-04-30 13:33 | 48.19347 | 7.33161 | 35252 ft | 431 kts | 159° |
| 2026-04-30 13:34 | 48.10761 | 7.37281 | 35234 ft | 432 kts | 159° |
| 2026-04-30 13:35 | 47.99292 | 7.42759 | 35231 ft | 433 kts | 159° |
| 2026-04-30 13:36 | 47.87838 | 7.48205 | 35230 ft | 433 kts | 159° |
| 2026-04-30 13:36 | 47.79210 | 7.52292 | 35215 ft | 434 kts | 159° |
| 2026-04-30 13:37 | 47.70675 | 7.56744 | 35220 ft | 432 kts | 153° |
| 2026-04-30 13:38 | 47.62432 | 7.62157 | 35208 ft | 432 kts | 153° |
| 2026-04-30 13:39 | 47.51403 | 7.69337 | 35214 ft | 433 kts | 153° |
| 2026-04-30 13:40 | 47.43140 | 7.74645 | 35205 ft | 434 kts | 153° |
| 2026-04-30 13:40 | 47.37589 | 7.78199 | 35205 ft | 435 kts | 153° |
| 2026-04-30 13:41 | 47.32040 | 7.81745 | 35192 ft | 435 kts | 154° |
| 2026-04-30 13:41 | 47.26490 | 7.85283 | 35189 ft | 432 kts | 154° |
| 2026-04-30 13:42 | 47.21014 | 7.88764 | 35193 ft | 426 kts | 154° |
| 2026-04-30 13:42 | 47.12813 | 7.93968 | 34611 ft | 425 kts | 153° |
| 2026-04-30 13:43 | 47.10104 | 7.95682 | 34221 ft | 422 kts | 153° |
| 2026-04-30 13:43 | 47.07414 | 7.97382 | 33795 ft | 419 kts | 153° |
| 2026-04-30 13:43 | 47.04744 | 7.99067 | 33388 ft | 416 kts | 153° |
| 2026-04-30 13:43 | 47.02091 | 8.00740 | 33004 ft | 413 kts | 153° |
| 2026-04-30 13:44 | 46.99463 | 8.02395 | 32608 ft | 410 kts | 153° |
| 2026-04-30 13:44 | 46.96853 | 8.04039 | 32226 ft | 406 kts | 153° |
| 2026-04-30 13:44 | 46.94263 | 8.05667 | 31852 ft | 403 kts | 153° |
| 2026-04-30 13:44 | 46.91722 | 8.07263 | 31485 ft | 401 kts | 153° |
| 2026-04-30 13:45 | 46.86627 | 8.10459 | 30715 ft | 395 kts | 152° |
| 2026-04-30 13:45 | 46.84110 | 8.12036 | 30346 ft | 393 kts | 152° |
| 2026-04-30 13:45 | 46.81598 | 8.13608 | 29939 ft | 391 kts | 152° |
| 2026-04-30 13:46 | 46.79102 | 8.15168 | 29522 ft | 388 kts | 152° |
| 2026-04-30 13:46 | 46.76631 | 8.16710 | 29141 ft | 384 kts | 152° |
| 2026-04-30 13:46 | 46.74190 | 8.18232 | 28767 ft | 380 kts | 152° |
| 2026-04-30 13:46 | 46.71766 | 8.19743 | 28386 ft | 378 kts | 152° |
| 2026-04-30 13:47 | 46.69352 | 8.21246 | 28021 ft | 375 kts | 152° |
| 2026-04-30 13:47 | 46.66954 | 8.22737 | 27616 ft | 373 kts | 152° |
| 2026-04-30 13:47 | 46.64574 | 8.24216 | 27271 ft | 371 kts | 153° |
| 2026-04-30 13:47 | 46.62205 | 8.25686 | 26870 ft | 369 kts | 153° |
| 2026-04-30 13:48 | 46.59887 | 8.27125 | 26541 ft | 366 kts | 153° |
| 2026-04-30 13:48 | 46.57545 | 8.28577 | 26177 ft | 365 kts | 153° |
| 2026-04-30 13:48 | 46.55218 | 8.30017 | 25816 ft | 363 kts | 153° |
| 2026-04-30 13:48 | 46.52898 | 8.31452 | 25459 ft | 361 kts | 153° |
| 2026-04-30 13:49 | 46.50587 | 8.32880 | 25113 ft | 360 kts | 153° |
| 2026-04-30 13:49 | 46.48287 | 8.34300 | 24761 ft | 358 kts | 153° |
| 2026-04-30 13:49 | 46.45994 | 8.35714 | 24408 ft | 358 kts | 153° |
| 2026-04-30 13:49 | 46.43700 | 8.37129 | 24054 ft | 358 kts | 153° |
| 2026-04-30 13:50 | 46.41406 | 8.38542 | 23678 ft | 358 kts | 153° |
| 2026-04-30 13:50 | 46.36823 | 8.41359 | 22889 ft | 356 kts | 153° |
| 2026-04-30 13:50 | 46.34548 | 8.42757 | 22519 ft | 354 kts | 154° |
| 2026-04-30 13:51 | 46.32282 | 8.44147 | 22159 ft | 352 kts | 153° |
| 2026-04-30 13:51 | 46.30030 | 8.45526 | 21814 ft | 351 kts | 154° |
| 2026-04-30 13:51 | 46.27765 | 8.46828 | 21435 ft | 350 kts | 159° |
| 2026-04-30 13:51 | 46.25382 | 8.47590 | 21084 ft | 352 kts | 171° |
| 2026-04-30 13:52 | 46.22973 | 8.47948 | 20728 ft | 352 kts | 173° |
| 2026-04-30 13:52 | 46.20532 | 8.48253 | 20362 ft | 351 kts | 173° |
| 2026-04-30 13:52 | 46.18100 | 8.48570 | 20022 ft | 351 kts | 173° |
| 2026-04-30 13:52 | 46.15675 | 8.48911 | 19650 ft | 348 kts | 172° |
| 2026-04-30 13:53 | 46.13272 | 8.49262 | 19342 ft | 346 kts | 172° |
| 2026-04-30 13:53 | 46.10891 | 8.49705 | 18970 ft | 347 kts | 165° |
| 2026-04-30 13:53 | 46.08607 | 8.50763 | 18636 ft | 344 kts | 157° |
| 2026-04-30 13:53 | 46.06368 | 8.51994 | 18215 ft | 344 kts | 156° |
| 2026-04-30 13:54 | 46.04141 | 8.53236 | 17831 ft | 342 kts | 157° |
| 2026-04-30 13:54 | 46.01926 | 8.54460 | 17493 ft | 340 kts | 157° |
| 2026-04-30 13:54 | 45.99720 | 8.55665 | 17114 ft | 338 kts | 157° |
| 2026-04-30 13:54 | 45.97522 | 8.56854 | 16778 ft | 336 kts | 158° |
| 2026-04-30 13:55 | 45.96080 | 8.57631 | 16548 ft | 335 kts | 158° |
| 2026-04-30 13:55 | 45.93901 | 8.58800 | 16209 ft | 333 kts | 158° |
| 2026-04-30 13:55 | 45.91734 | 8.59962 | 15871 ft | 331 kts | 158° |
| 2026-04-30 13:55 | 45.89612 | 8.61216 | 15525 ft | 329 kts | 148° |
| 2026-04-30 13:56 | 45.87806 | 8.63119 | 15207 ft | 325 kts | 138° |
| 2026-04-30 13:56 | 45.86066 | 8.65185 | 14865 ft | 324 kts | 138° |
| 2026-04-30 13:56 | 45.84332 | 8.67248 | 14535 ft | 323 kts | 138° |
| 2026-04-30 13:56 | 45.82591 | 8.69296 | 14197 ft | 323 kts | 139° |
| 2026-04-30 13:57 | 45.80845 | 8.71326 | 13838 ft | 323 kts | 139° |
| 2026-04-30 13:57 | 45.79095 | 8.73342 | 13465 ft | 322 kts | 139° |
| 2026-04-30 13:57 | 45.77354 | 8.75343 | 13126 ft | 320 kts | 139° |
| 2026-04-30 13:57 | 45.75566 | 8.77231 | 12900 ft | 316 kts | 147° |
| 2026-04-30 13:58 | 45.73646 | 8.78771 | 12477 ft | 318 kts | 151° |
| 2026-04-30 13:58 | 45.69721 | 8.81628 | 11814 ft | 315 kts | 152° |
| 2026-04-30 13:58 | 45.67804 | 8.83060 | 11478 ft | 306 kts | 151° |
| 2026-04-30 13:59 | 45.65954 | 8.84466 | 11244 ft | 294 kts | 151° |
| 2026-04-30 13:59 | 45.64195 | 8.85813 | 11112 ft | 280 kts | 150° |
| 2026-04-30 13:59 | 45.62517 | 8.87100 | 10958 ft | 267 kts | 150° |
| 2026-04-30 13:59 | 45.60829 | 8.88074 | 10747 ft | 259 kts | 166° |
| 2026-04-30 14:00 | 45.59083 | 8.88559 | 10536 ft | 254 kts | 170° |
| 2026-04-30 14:00 | 45.55556 | 8.89404 | 10053 ft | 264 kts | 170° |
| 2026-04-30 14:00 | 45.53705 | 8.89839 | 9776 ft | 273 kts | 170° |
| 2026-04-30 14:01 | 45.51836 | 8.90270 | 9473 ft | 270 kts | 170° |
| 2026-04-30 14:01 | 45.49993 | 8.90694 | 9015 ft | 270 kts | 170° |
| 2026-04-30 14:01 | 45.48110 | 8.91131 | 8382 ft | 277 kts | 170° |
| 2026-04-30 14:01 | 45.46211 | 8.91569 | 7768 ft | 282 kts | 170° |
| 2026-04-30 14:02 | 45.44255 | 8.92022 | 7151 ft | 287 kts | 171° |
| 2026-04-30 14:02 | 45.42271 | 8.92476 | 6537 ft | 290 kts | 170° |
| 2026-04-30 14:02 | 45.40270 | 8.92875 | 5904 ft | 292 kts | 178° |
| 2026-04-30 14:02 | 45.38350 | 8.92152 | 5574 ft | 283 kts | 212° |
| 2026-04-30 14:03 | 45.37056 | 8.90154 | 5302 ft | 273 kts | 245° |
| 2026-04-30 14:03 | 45.36698 | 8.87613 | 5255 ft | 255 kts | 274° |
| 2026-04-30 14:03 | 45.37295 | 8.85373 | 5050 ft | 236 kts | 312° |
| 2026-04-30 14:03 | 45.38484 | 8.83916 | 4964 ft | 218 kts | 323° |
| 2026-04-30 14:04 | 45.39646 | 8.82619 | 4811 ft | 208 kts | 323° |
| 2026-04-30 14:04 | 45.40776 | 8.81353 | 4574 ft | 206 kts | 323° |
| 2026-04-30 14:04 | 45.41899 | 8.80100 | 4300 ft | 204 kts | 323° |
| 2026-04-30 14:04 | 45.43086 | 8.79064 | 4078 ft | 199 kts | 345° |
| 2026-04-30 14:05 | 45.44430 | 8.78579 | 4081 ft | 204 kts | 348° |
| 2026-04-30 14:05 | 45.45823 | 8.78127 | 3900 ft | 205 kts | 351° |
| 2026-04-30 14:05 | 45.47225 | 8.77731 | 3649 ft | 202 kts | 350° |
| 2026-04-30 14:05 | 45.48605 | 8.77347 | 3379 ft | 199 kts | 351° |
| 2026-04-30 14:06 | 45.49943 | 8.76978 | 3118 ft | 197 kts | 351° |
| 2026-04-30 14:06 | 45.52595 | 8.76240 | 2578 ft | 189 kts | 351° |
| 2026-04-30 14:07 | 45.55189 | 8.75540 | 2064 ft | 186 kts | 350° |
| 2026-04-30 14:07 | 45.56417 | 8.75181 | 1799 ft | 173 kts | 350° |
| 2026-04-30 14:07 | 45.57545 | 8.74867 | 1546 ft | 160 kts | 350° |
| 2026-04-30 14:08 | 45.59561 | 8.74308 | 1154 ft | 141 kts | 350° |
| 2026-04-30 14:08 | 45.60517 | 8.74043 | 962 ft | 140 kts | 352° |
| 2026-04-30 14:08 | 45.62380 | 8.73526 | 739 ft | 122 kts | 348° |
| 2026-04-30 14:09 | 45.62988 | 8.73355 | 733 ft | 39 kts | 349° |
| 2026-04-30 14:09 | 45.63165 | 8.73211 | 735 ft | 29 kts | 320° |
| 2026-04-30 14:09 | 45.63382 | 8.72782 | 735 ft | 24 kts | 283° |